Terminal Aerodrome Forecast
Issued by NWS

Home | Current Version | Previous Version | Graphics & Text | Print | Product List | Glossary On
Versions: 1 2 3 4 5 6 7 8 9 10 11 12 13 14 15 16 17 18 19
000
FTUS43 KGRB 291045 AAA
TAFAUW
TAF AMD
KAUW 291045Z 2911/3006 13003KT 6SM BR SCT005 OVC008
     FM291500 06004KT 5SM BR BKN010
     FM291800 18005KT P6SM FEW015 BKN050
     FM292100 19004KT P6SM SCT050=

USA.gov is the U.S. government's official web portal to all federal, state and local government web resources and services.